Time;durP1;ratioP1;P1;durP2;ratioP2;P2;SDS_P1;SDS_P2;PMS_P1;PMS_P2;Temp;Humidity;BMP_temperature;BMP_pressure;BME280_temperature;BME280_humidity;BME280_pressure;Samples;Min_cycle;Max_cycle;Signal;HPM_P1;HPM_P2
2021/03/06 00:00:21;;;;;;;4.13;2.47;;;-2.90;99.90;;;;;;5050971;28;20033;-77
2021/03/06 00:02:48;;;;;;;4.05;2.55;;;-2.90;99.90;;;;;;5048529;28;20484;-77
2021/03/06 00:05:14;;;;;;;6.03;3.08;;;-2.90;99.90;;;;;;5049379;28;20155;-77
2021/03/06 00:07:40;;;;;;;5.78;3.50;;;-2.90;99.90;;;;;;5048011;28;20112;-77
2021/03/06 00:10:11;;;;;;;3.42;2.33;;;-2.90;99.90;;;;;;5049308;28;20044;-77
2021/03/06 00:12:37;;;;;;;5.32;2.80;;;-2.90;99.90;;;;;;5083083;28;20447;-77
2021/03/06 00:15:04;;;;;;;5.65;3.25;;;-2.90;99.90;;;;;;5065986;28;20029;-77
2021/03/06 00:17:30;;;;;;;5.45;2.90;;;-2.90;99.90;;;;;;5049573;28;20037;-77
2021/03/06 00:19:56;;;;;;;5.28;2.72;;;-2.90;99.90;;;;;;5050010;28;20669;-77
2021/03/06 00:22:21;;;;;;;4.95;2.90;;;-2.90;99.90;;;;;;5049560;28;20071;-77
2021/03/06 00:24:47;;;;;;;4.78;2.85;;;-2.90;99.90;;;;;;5051092;28;20029;-77
2021/03/06 00:27:13;;;;;;;4.88;2.78;;;-2.90;99.90;;;;;;5049342;28;20063;-77
2021/03/06 00:29:38;;;;;;;4.53;2.97;;;-3.00;99.90;;;;;;5049768;28;20029;-77
2021/03/06 00:32:05;;;;;;;4.32;2.85;;;-2.90;99.90;;;;;;5050880;28;20551;-77
2021/03/06 00:34:30;;;;;;;4.95;3.03;;;-3.00;99.90;;;;;;5050972;28;20510;-77
2021/03/06 00:36:56;;;;;;;3.22;2.42;;;-3.00;99.90;;;;;;5048477;28;20043;-77
2021/03/06 00:39:22;;;;;;;4.25;2.70;;;-3.00;99.90;;;;;;5048351;28;20040;-77
2021/03/06 00:41:47;;;;;;;5.93;3.08;;;-3.00;99.90;;;;;;5051160;28;20029;-77
2021/03/06 00:44:15;;;;;;;3.38;2.33;;;-3.10;99.90;;;;;;5049616;28;20063;-77
2021/03/06 00:46:40;;;;;;;4.85;3.10;;;-3.00;99.90;;;;;;5049648;28;20025;-77
2021/03/06 00:49:06;;;;;;;4.15;3.00;;;-3.10;99.90;;;;;;5050885;28;20151;-77
2021/03/06 00:51:32;;;;;;;4.93;2.83;;;-3.00;99.90;;;;;;5050643;28;20032;-77
2021/03/06 00:53:58;;;;;;;5.90;3.00;;;-3.00;99.90;;;;;;5049247;28;20032;-77
2021/03/06 00:56:25;;;;;;;5.80;2.53;;;-3.00;99.90;;;;;;5047762;28;20065;-77
2021/03/06 00:58:51;;;;;;;5.22;3.22;;;-3.10;99.90;;;;;;5049538;28;20053;-77
2021/03/06 01:01:17;;;;;;;5.03;2.90;;;-3.20;99.90;;;;;;5049267;28;20416;-77
2021/03/06 01:03:43;;;;;;;6.55;3.95;;;-3.20;99.90;;;;;;5050501;28;20029;-77
2021/03/06 01:06:09;;;;;;;5.75;2.83;;;-3.30;99.90;;;;;;5081817;28;20518;-77
2021/03/06 01:08:35;;;;;;;5.30;2.75;;;-3.40;99.90;;;;;;5065557;28;20029;-77
2021/03/06 01:11:01;;;;;;;4.30;3.00;;;-3.40;99.90;;;;;;5049223;28;20519;-77
2021/03/06 01:13:28;;;;;;;5.55;3.22;;;-3.40;99.90;;;;;;5050248;28;20041;-77
2021/03/06 01:15:53;;;;;;;5.88;3.33;;;-3.50;99.90;;;;;;5048988;28;20049;-77
2021/03/06 01:18:20;;;;;;;5.80;3.35;;;-3.50;99.90;;;;;;5047607;28;20033;-77
2021/03/06 01:20:45;;;;;;;5.30;3.28;;;-3.50;99.90;;;;;;5049097;28;20033;-77
2021/03/06 01:23:11;;;;;;;5.85;3.90;;;-3.50;99.90;;;;;;5049248;28;20025;-77
2021/03/06 01:25:37;;;;;;;6.55;3.42;;;-3.50;99.90;;;;;;5049977;28;20021;-77
2021/03/06 01:28:03;;;;;;;4.70;3.60;;;-3.50;99.90;;;;;;5048739;28;20086;-77
2021/03/06 01:30:29;;;;;;;6.57;3.55;;;-3.50;99.90;;;;;;5050164;28;20110;-77
2021/03/06 01:32:54;;;;;;;5.50;3.15;;;-3.50;99.90;;;;;;5049939;28;20037;-77
2021/03/06 01:35:22;;;;;;;4.80;3.17;;;-3.50;99.90;;;;;;5049804;28;20037;-77
2021/03/06 01:37:49;;;;;;;4.82;3.15;;;-3.50;99.90;;;;;;5047838;28;20037;-77
2021/03/06 01:40:18;;;;;;;6.03;3.50;;;-3.50;99.90;;;;;;5049878;28;20112;-77
2021/03/06 01:42:44;;;;;;;6.40;3.35;;;-3.50;99.90;;;;;;5082270;28;20037;-76
2021/03/06 01:45:10;;;;;;;5.82;3.55;;;-3.50;99.90;;;;;;5048666;28;20036;-77
2021/03/06 01:47:38;;;;;;;4.65;3.03;;;-3.50;99.90;;;;;;5063763;28;20040;-77
2021/03/06 01:50:07;;;;;;;6.57;2.88;;;-3.50;99.90;;;;;;5050079;28;20037;-77
2021/03/06 01:52:33;;;;;;;6.47;3.20;;;-3.50;99.90;;;;;;5052135;28;20041;-77
2021/03/06 01:54:59;;;;;;;5.05;3.40;;;-3.50;99.90;;;;;;5085398;28;20032;-77
2021/03/06 01:57:25;;;;;;;6.32;3.45;;;-3.50;99.90;;;;;;5050386;28;20033;-77
2021/03/06 01:59:51;;;;;;;5.00;3.35;;;-3.50;99.90;;;;;;5041121;28;20416;-77
2021/03/06 02:02:18;;;;;;;6.40;3.15;;;-3.60;99.90;;;;;;5048615;28;20038;-77
2021/03/06 02:04:44;;;;;;;6.05;3.22;;;-3.60;99.90;;;;;;5058439;28;20436;-77
2021/03/06 02:07:10;;;;;;;5.10;3.22;;;-3.60;99.90;;;;;;5050368;28;20123;-77
2021/03/06 02:09:35;;;;;;;5.38;3.30;;;-3.60;99.90;;;;;;5052901;28;20041;-77
2021/03/06 02:12:38;;;;;;;5.90;3.17;;;-3.60;99.90;;;;;;5051919;28;20053;-77
2021/03/06 02:15:28;;;;;;;7.18;3.25;;;-3.70;99.90;;;;;;5052947;28;20021;-77
2021/03/06 02:17:58;;;;;;;6.55;3.97;;;-3.70;99.90;;;;;;5051548;28;20044;-77
2021/03/06 02:20:54;;;;;;;6.60;3.60;;;-3.70;99.90;;;;;;5052811;28;20037;-77
2021/03/06 02:23:58;;;;;;;8.45;3.92;;;-3.80;99.90;;;;;;5050254;28;20033;-77
2021/03/06 02:26:37;;;;;;;5.78;3.10;;;-3.80;99.90;;;;;;5063327;28;20045;-77
2021/03/06 02:29:28;;;;;;;6.97;3.33;;;-3.80;99.90;;;;;;5031707;28;20112;-77
2021/03/06 02:31:56;;;;;;;4.75;3.40;;;-3.90;99.90;;;;;;5064776;28;20058;-77
2021/03/06 02:34:28;;;;;;;5.45;3.33;;;-3.90;99.90;;;;;;5014546;28;20037;-77
2021/03/06 02:36:57;;;;;;;8.10;3.90;;;-3.90;99.90;;;;;;5072418;28;20043;-77
2021/03/06 02:39:26;;;;;;;5.00;2.97;;;-3.90;99.90;;;;;;5084566;28;20090;-77
2021/03/06 02:41:54;;;;;;;6.38;3.60;;;-3.90;99.90;;;;;;5051258;28;20606;-77
2021/03/06 02:44:23;;;;;;;6.20;3.47;;;-3.90;99.90;;;;;;5052363;28;20056;-77
2021/03/06 02:46:48;;;;;;;6.43;3.85;;;-4.00;99.90;;;;;;5050862;28;20033;-77
2021/03/06 02:49:14;;;;;;;5.32;3.53;;;-4.00;99.90;;;;;;5052242;28;20028;-77
2021/03/06 02:51:44;;;;;;;4.80;3.38;;;-4.00;99.90;;;;;;5052435;28;20041;-77
2021/03/06 02:54:11;;;;;;;5.65;3.55;;;-4.00;99.90;;;;;;5051943;28;20128;-77
2021/03/06 02:56:37;;;;;;;6.05;3.55;;;-4.00;99.90;;;;;;5050826;28;20044;-77
2021/03/06 02:59:22;;;;;;;5.43;3.58;;;-4.00;99.90;;;;;;5052047;28;20064;-77
2021/03/06 03:02:02;;;;;;;5.80;3.58;;;-4.00;99.90;;;;;;5045525;28;20044;-77
2021/03/06 03:04:43;;;;;;;9.43;4.40;;;-4.10;99.90;;;;;;5063630;28;20036;-76
2021/03/06 03:07:20;;;;;;;7.00;3.40;;;-4.10;99.90;;;;;;5030794;28;20099;-77
2021/03/06 03:09:50;;;;;;;6.60;3.63;;;-4.10;99.90;;;;;;5074934;28;20480;-77
2021/03/06 03:12:23;;;;;;;7.03;4.18;;;-4.10;99.90;;;;;;5068015;28;20029;-77
2021/03/06 03:14:51;;;;;;;6.18;3.35;;;-4.10;99.90;;;;;;5051897;28;20025;-77
2021/03/06 03:17:42;;;;;;;8.40;4.13;;;-4.10;99.90;;;;;;5050131;28;20108;-77
2021/03/06 03:20:24;;;;;;;6.70;3.58;;;-4.10;99.90;;;;;;5050230;28;20403;-77
2021/03/06 03:22:55;;;;;;;6.22;3.20;;;-4.10;99.90;;;;;;5051495;28;20027;-77
2021/03/06 03:25:22;;;;;;;5.80;3.55;;;-4.20;99.90;;;;;;5051691;28;20447;-77
2021/03/06 03:27:49;;;;;;;6.35;3.92;;;-4.20;99.90;;;;;;5051193;28;20029;-78
2021/03/06 03:30:18;;;;;;;6.10;3.63;;;-4.20;99.90;;;;;;5052728;28;20051;-78
2021/03/06 03:32:50;;;;;;;6.68;3.63;;;-4.20;99.90;;;;;;5050880;28;20036;-78
2021/03/06 03:35:17;;;;;;;5.75;3.58;;;-4.20;99.90;;;;;;5034888;28;20048;-78
2021/03/06 03:37:45;;;;;;;5.40;3.45;;;-4.30;99.90;;;;;;5051083;28;20128;-78
2021/03/06 03:40:17;;;;;;;8.95;3.90;;;-4.20;99.90;;;;;;5052583;28;20032;-78
2021/03/06 03:42:43;;;;;;;6.70;3.92;;;-4.20;99.90;;;;;;5052679;28;20306;-77
2021/03/06 03:45:11;;;;;;;8.32;4.25;;;-4.30;99.90;;;;;;5052630;28;20028;-78
2021/03/06 03:47:39;;;;;;;7.38;3.45;;;-4.30;99.90;;;;;;5066545;28;20044;-78
2021/03/06 03:50:07;;;;;;;6.47;4.03;;;-4.30;99.90;;;;;;5068222;28;20041;-78
2021/03/06 03:52:47;;;;;;;6.90;3.85;;;-4.30;99.90;;;;;;5052006;28;20036;-78
2021/03/06 03:55:13;;;;;;;6.53;3.75;;;-4.30;99.90;;;;;;5067936;28;20096;-78
2021/03/06 03:57:39;;;;;;;6.28;3.78;;;-4.30;99.90;;;;;;5083211;28;20104;-78
2021/03/06 04:00:08;;;;;;;10.48;3.83;;;-4.30;99.90;;;;;;5052347;28;20060;-78
2021/03/06 04:02:34;;;;;;;6.28;4.25;;;-4.30;99.90;;;;;;5050416;28;20037;-78
2021/03/06 04:05:00;;;;;;;7.05;3.65;;;-4.30;99.90;;;;;;5052338;28;20017;-78
2021/03/06 04:07:26;;;;;;;7.28;3.88;;;-4.30;99.90;;;;;;5050620;28;20498;-78
2021/03/06 04:09:51;;;;;;;8.10;3.97;;;-4.30;99.90;;;;;;5050944;28;20036;-77
2021/03/06 04:12:17;;;;;;;9.38;4.30;;;-4.40;99.90;;;;;;5051128;28;20029;-78
2021/03/06 04:14:43;;;;;;;6.50;3.47;;;-4.40;99.90;;;;;;5052479;28;20025;-78
2021/03/06 04:17:11;;;;;;;7.55;4.07;;;-4.40;99.90;;;;;;5049202;28;20119;-78
2021/03/06 04:19:36;;;;;;;5.70;4.00;;;-4.40;99.90;;;;;;5050825;28;20029;-78
2021/03/06 04:22:02;;;;;;;6.97;4.07;;;-4.40;99.90;;;;;;5033962;28;20235;-78
2021/03/06 04:24:28;;;;;;;5.82;3.88;;;-4.40;99.90;;;;;;5067686;28;20033;-78
2021/03/06 04:26:54;;;;;;;6.28;3.42;;;-4.40;99.90;;;;;;5049904;28;20036;-78
2021/03/06 04:29:20;;;;;;;7.55;3.47;;;-4.50;99.90;;;;;;5050665;28;20037;-78
2021/03/06 04:31:47;;;;;;;7.45;4.03;;;-4.50;99.90;;;;;;5051912;28;20120;-78
2021/03/06 04:34:13;;;;;;;5.40;3.53;;;-4.50;99.90;;;;;;5050345;28;20381;-78
2021/03/06 04:36:39;;;;;;;7.53;3.90;;;-4.50;99.90;;;;;;5065598;28;20499;-78
2021/03/06 04:39:05;;;;;;;8.68;4.07;;;-4.50;99.90;;;;;;5051677;28;20040;-78
2021/03/06 04:41:31;;;;;;;7.72;3.90;;;-4.50;99.90;;;;;;5051935;28;20392;-78
2021/03/06 04:43:57;;;;;;;5.78;3.60;;;-4.60;99.90;;;;;;5051884;28;20475;-78
2021/03/06 04:46:23;;;;;;;9.75;4.20;;;-4.50;99.90;;;;;;5065778;28;20040;-78
2021/03/06 04:48:49;;;;;;;8.35;4.28;;;-4.60;99.90;;;;;;5052034;28;20033;-78
2021/03/06 04:51:15;;;;;;;5.95;4.10;;;-4.60;99.90;;;;;;5049343;28;20037;-78
2021/03/06 04:53:40;;;;;;;7.78;4.50;;;-4.60;99.90;;;;;;5051998;28;20075;-78
2021/03/06 04:56:07;;;;;;;6.10;4.05;;;-4.60;99.90;;;;;;5050086;28;20045;-77
2021/03/06 04:58:32;;;;;;;6.55;3.95;;;-4.60;99.90;;;;;;5049810;28;20036;-78
2021/03/06 05:00:58;;;;;;;7.18;3.95;;;-4.70;99.90;;;;;;5049092;28;20033;-78
2021/03/06 05:03:24;;;;;;;10.88;4.32;;;-4.70;99.90;;;;;;5032260;28;20164;-78
2021/03/06 05:05:50;;;;;;;7.18;4.10;;;-4.70;99.90;;;;;;5063456;28;20083;-78
2021/03/06 05:08:15;;;;;;;6.88;3.80;;;-4.70;99.90;;;;;;5065496;28;20052;-78
2021/03/06 05:10:41;;;;;;;5.35;3.70;;;-4.80;99.90;;;;;;5050012;28;20056;-78
2021/03/06 05:13:06;;;;;;;8.68;4.90;;;-4.80;99.90;;;;;;5051141;28;20044;-78
2021/03/06 05:15:32;;;;;;;10.60;3.95;;;-4.80;99.90;;;;;;5066925;28;20044;-78
2021/03/06 05:17:59;;;;;;;7.82;4.50;;;-4.80;99.90;;;;;;5048716;28;20120;-78
2021/03/06 05:20:25;;;;;;;6.07;3.95;;;-4.80;99.90;;;;;;5033407;28;20037;-78
2021/03/06 05:22:50;;;;;;;5.70;3.90;;;-4.80;99.90;;;;;;5051224;28;20033;-78
2021/03/06 05:25:16;;;;;;;9.43;4.07;;;-4.80;99.90;;;;;;5052381;28;20127;-78
2021/03/06 05:27:42;;;;;;;8.20;4.10;;;-4.80;99.90;;;;;;5069787;28;20075;-78
2021/03/06 05:30:08;;;;;;;7.75;3.95;;;-4.80;99.90;;;;;;5054170;28;20495;-78
2021/03/06 05:32:34;;;;;;;6.05;4.03;;;-4.80;99.90;;;;;;5070235;28;20032;-78
2021/03/06 05:35:01;;;;;;;6.20;4.00;;;-4.80;99.90;;;;;;5070546;28;20433;-78
2021/03/06 05:37:26;;;;;;;8.18;4.22;;;-4.80;99.90;;;;;;5085905;28;20442;-78
2021/03/06 05:39:52;;;;;;;7.38;4.50;;;-4.80;99.90;;;;;;5053745;28;20136;-78
2021/03/06 05:42:18;;;;;;;8.85;4.55;;;-4.80;99.90;;;;;;5070265;28;20025;-78
2021/03/06 05:44:44;;;;;;;8.65;4.38;;;-4.80;99.90;;;;;;5053594;28;20032;-78
2021/03/06 05:47:12;;;;;;;9.02;4.60;;;-4.80;99.90;;;;;;5052384;28;20465;-77
2021/03/06 05:49:38;;;;;;;6.85;3.90;;;-4.90;99.90;;;;;;5036641;28;20048;-78
2021/03/06 05:52:06;;;;;;;9.50;4.43;;;-4.80;99.90;;;;;;5053737;28;20036;-78
2021/03/06 05:54:34;;;;;;;6.28;4.15;;;-4.90;99.90;;;;;;5070081;28;20503;-78
2021/03/06 05:57:02;;;;;;;11.15;4.43;;;-4.80;99.90;;;;;;5085791;28;20041;-78
2021/03/06 05:59:28;;;;;;;9.80;4.30;;;-4.80;99.90;;;;;;5054463;28;20033;-78
2021/03/06 06:01:55;;;;;;;8.27;4.25;;;-4.80;99.90;;;;;;5053255;28;20038;-78
2021/03/06 06:04:24;;;;;;;5.97;3.65;;;-4.80;99.90;;;;;;5070018;28;20037;-78
2021/03/06 06:06:50;;;;;;;6.70;3.50;;;-4.80;99.90;;;;;;5052956;28;20021;-78
2021/03/06 06:09:16;;;;;;;8.52;4.75;;;-4.80;99.90;;;;;;5086687;28;20052;-78
2021/03/06 06:11:42;;;;;;;8.23;4.13;;;-4.80;99.90;;;;;;5054738;28;20491;-78
2021/03/06 06:14:07;;;;;;;5.35;3.85;;;-4.80;99.90;;;;;;5054468;28;20043;-78
2021/03/06 06:16:34;;;;;;;7.22;3.70;;;-4.80;99.90;;;;;;5053180;28;20059;-78
2021/03/06 06:19:04;;;;;;;8.70;3.53;;;-4.70;99.90;;;;;;5052618;28;20514;-78
2021/03/06 06:21:36;;;;;;;5.57;3.60;;;-4.70;99.90;;;;;;5053970;28;20090;-78
2021/03/06 06:24:11;;;;;;;7.40;4.05;;;-4.60;99.90;;;;;;5054064;28;20059;-78
2021/03/06 06:26:38;;;;;;;5.97;3.55;;;-4.60;99.90;;;;;;5049180;28;20037;-78
2021/03/06 06:29:04;;;;;;;10.10;4.72;;;-4.60;99.90;;;;;;5053814;28;20033;-78
2021/03/06 06:31:30;;;;;;;10.60;4.35;;;-4.50;99.90;;;;;;5053460;28;20518;-78
2021/03/06 06:33:56;;;;;;;7.28;4.20;;;-4.50;99.90;;;;;;5053361;28;20029;-78
2021/03/06 06:36:39;;;;;;;7.97;4.22;;;-4.40;99.90;;;;;;5055589;28;20033;-78
2021/03/06 06:39:09;;;;;;;5.43;3.38;;;-4.40;99.90;;;;;;5053051;28;20033;-78
2021/03/06 06:41:52;;;;;;;7.50;4.10;;;-4.30;99.90;;;;;;5053266;28;20066;-77
2021/03/06 06:44:18;;;;;;;5.85;3.65;;;-4.30;99.90;;;;;;5052435;28;20107;-77
2021/03/06 06:46:44;;;;;;;6.25;3.75;;;-4.20;99.90;;;;;;5066673;28;20143;-77
2021/03/06 06:49:10;;;;;;;6.25;3.85;;;-4.10;99.90;;;;;;5058398;28;20036;-77
2021/03/06 06:51:36;;;;;;;7.07;3.83;;;-4.00;99.90;;;;;;5060426;28;20663;-76
2021/03/06 06:54:15;;;;;;;8.95;4.45;;;-3.70;99.90;;;;;;5072544;28;20028;-78
2021/03/06 06:56:41;;;;;;;6.78;4.40;;;-3.10;99.90;;;;;;5056557;28;20034;-77
2021/03/06 06:59:08;;;;;;;4.75;3.75;;;-2.50;99.90;;;;;;5051145;28;20036;-78
2021/03/06 07:01:37;;;;;;;7.25;4.30;;;-1.90;99.90;;;;;;5051866;28;20117;-79
2021/03/06 07:04:07;;;;;;;6.90;4.43;;;-1.30;99.90;;;;;;5052153;28;20024;-77
2021/03/06 07:06:35;;;;;;;11.02;5.28;;;-0.70;99.90;;;;;;5051018;28;20033;-78
2021/03/06 07:09:19;;;;;;;8.18;4.20;;;-0.10;99.90;;;;;;5059847;28;20403;-77
2021/03/06 07:11:44;;;;;;;7.45;4.35;;;0.60;99.90;;;;;;5071949;28;20040;-78
2021/03/06 07:14:10;;;;;;;7.60;3.88;;;1.10;99.90;;;;;;5050287;28;20033;-77
2021/03/06 07:17:14;;;;;;;6.65;4.15;;;1.50;99.90;;;;;;5048264;28;20590;-77
2021/03/06 07:19:41;;;;;;;8.25;4.43;;;1.90;99.90;;;;;;4973573;28;20046;-77
2021/03/06 07:22:07;;;;;;;6.15;3.78;;;2.20;99.90;;;;;;4990292;28;20452;-77
2021/03/06 07:24:33;;;;;;;6.78;4.05;;;2.50;99.90;;;;;;4998995;28;20037;-79
2021/03/06 07:26:59;;;;;;;7.72;5.13;;;2.80;99.90;;;;;;5062900;28;20480;-77
2021/03/06 07:29:26;;;;;;;6.90;4.05;;;3.10;99.90;;;;;;5049774;28;20025;-79
2021/03/06 07:31:54;;;;;;;6.60;4.13;;;3.30;99.90;;;;;;5044565;28;20029;-77
2021/03/06 07:34:22;;;;;;;6.38;4.18;;;3.50;99.90;;;;;;5050064;28;20037;-77
2021/03/06 07:36:49;;;;;;;5.95;3.65;;;3.70;99.90;;;;;;5048100;28;20032;-77
2021/03/06 07:39:17;;;;;;;6.57;4.50;;;3.90;99.90;;;;;;5047860;28;20506;-77
2021/03/06 07:41:52;;;;;;;6.30;4.20;;;4.10;99.90;;;;;;5050242;28;20239;-77
2021/03/06 07:44:21;;;;;;;8.45;3.97;;;4.30;99.90;;;;;;5051544;28;20028;-77
2021/03/06 07:46:48;;;;;;;6.82;4.38;;;4.40;99.90;;;;;;5049831;28;20037;-77
2021/03/06 07:49:17;;;;;;;8.70;4.82;;;4.40;99.90;;;;;;5049540;28;20025;-77
2021/03/06 07:51:45;;;;;;;7.65;4.28;;;4.40;99.90;;;;;;5050465;28;20392;-77
2021/03/06 07:54:14;;;;;;;8.48;4.63;;;4.40;99.90;;;;;;5049890;28;20033;-77
2021/03/06 07:56:40;;;;;;;6.65;4.88;;;4.40;99.90;;;;;;5064402;28;20039;-78
2021/03/06 07:59:07;;;;;;;6.55;4.55;;;4.30;99.90;;;;;;5082965;28;20032;-76
2021/03/06 08:01:34;;;;;;;6.28;3.45;;;4.40;99.90;;;;;;5052014;28;20025;-79
2021/03/06 08:04:02;;;;;;;4.32;3.03;;;4.30;99.90;;;;;;5050865;28;20426;-78
2021/03/06 08:06:29;;;;;;;6.18;3.83;;;4.30;99.90;;;;;;5048753;28;20544;-77
2021/03/06 08:09:02;;;;;;;6.60;3.63;;;4.30;99.90;;;;;;5049551;28;20176;-77
2021/03/06 08:11:34;;;;;;;9.43;4.03;;;4.30;99.90;;;;;;5049830;28;20037;-77
2021/03/06 08:14:04;;;;;;;8.00;4.13;;;3.90;99.90;;;;;;5049774;28;20082;-78
2021/03/06 08:16:31;;;;;;;7.72;3.60;;;3.70;99.90;;;;;;5049865;28;20055;-77
2021/03/06 08:19:00;;;;;;;5.47;3.42;;;3.50;99.90;;;;;;5050407;28;20025;-78
2021/03/06 08:21:40;;;;;;;6.45;3.50;;;3.30;99.90;;;;;;5050981;28;20037;-77
2021/03/06 08:24:13;;;;;;;6.35;3.60;;;3.10;99.90;;;;;;5049801;28;20029;-77
2021/03/06 08:27:12;;;;;;;6.50;3.83;;;2.90;99.90;;;;;;5031828;28;20044;-77
2021/03/06 08:29:39;;;;;;;8.02;3.92;;;2.50;99.90;;;;;;5030862;28;20056;-77
2021/03/06 08:32:27;;;;;;;6.80;3.65;;;2.30;99.90;;;;;;5030796;28;20061;-77
2021/03/06 08:34:54;;;;;;;6.35;3.83;;;2.20;99.90;;;;;;5058162;28;20034;-75
2021/03/06 08:37:20;;;;;;;7.70;3.83;;;2.00;99.90;;;;;;5058671;28;20073;-74
2021/03/06 08:39:48;;;;;;;8.48;3.88;;;1.80;99.90;;;;;;5070852;28;20059;-75
2021/03/06 08:42:19;;;;;;;6.60;3.80;;;1.80;99.90;;;;;;5057422;28;20039;-75
2021/03/06 08:44:46;;;;;;;9.30;3.83;;;1.70;99.90;;;;;;5089710;28;20028;-76
2021/03/06 08:47:19;;;;;;;5.68;3.83;;;1.70;99.90;;;;;;5057298;28;20079;-75
2021/03/06 08:49:46;;;;;;;8.20;3.85;;;1.70;99.90;;;;;;5064002;28;20033;-77
2021/03/06 08:52:12;;;;;;;7.13;3.75;;;1.70;99.90;;;;;;5079239;28;20484;-76
2021/03/06 08:54:39;;;;;;;5.32;3.53;;;1.70;99.90;;;;;;5049123;28;20078;-77
2021/03/06 08:57:05;;;;;;;6.53;4.20;;;1.70;99.90;;;;;;5047199;28;20102;-77
2021/03/06 08:59:38;;;;;;;5.85;3.78;;;1.70;99.90;;;;;;5050722;28;20061;-76
2021/03/06 09:02:31;;;;;;;6.30;3.13;;;1.80;99.90;;;;;;5032359;28;20542;-77
2021/03/06 09:05:05;;;;;;;4.55;3.15;;;1.80;99.90;;;;;;5048288;28;20033;-76
2021/03/06 09:07:36;;;;;;;5.20;2.95;;;1.90;99.90;;;;;;5052830;28;20033;-76
2021/03/06 09:10:19;;;;;;;6.20;3.40;;;2.00;99.90;;;;;;5052509;28;20036;-77
2021/03/06 09:12:46;;;;;;;5.53;3.10;;;2.00;99.90;;;;;;5052625;28;20033;-77
2021/03/06 09:15:23;;;;;;;6.78;3.22;;;1.90;99.90;;;;;;5053917;28;20396;-76
2021/03/06 09:17:49;;;;;;;7.25;4.82;;;2.00;99.90;;;;;;5033551;28;20041;-76
2021/03/06 09:20:15;;;;;;;9.27;3.78;;;2.10;99.90;;;;;;5053812;28;20625;-76
2021/03/06 09:22:42;;;;;;;7.68;3.50;;;2.20;99.90;;;;;;5051467;28;20055;-77
2021/03/06 09:25:09;;;;;;;5.53;2.88;;;2.20;99.90;;;;;;5049574;28;20021;-75
2021/03/06 09:27:46;;;;;;;5.22;2.88;;;2.30;99.90;;;;;;5060744;28;20040;-76
2021/03/06 09:30:30;;;;;;;3.35;2.40;;;2.40;99.90;;;;;;5043258;28;20108;-76
2021/03/06 09:32:56;;;;;;;6.03;2.42;;;2.40;99.90;;;;;;5047281;28;20037;-76
2021/03/06 09:35:23;;;;;;;9.60;4.68;;;2.40;99.90;;;;;;5049944;28;20472;-77
2021/03/06 09:38:04;;;;;;;7.03;3.60;;;2.50;99.90;;;;;;5047960;28;20604;-75
2021/03/06 09:40:36;;;;;;;4.78;2.97;;;2.60;99.90;;;;;;5049998;28;20037;-76
2021/03/06 09:43:02;;;;;;;4.75;2.15;;;2.70;99.90;;;;;;5049449;28;20036;-76
2021/03/06 09:45:28;;;;;;;9.05;2.83;;;2.70;99.90;;;;;;5046091;28;20091;-77
2021/03/06 09:48:02;;;;;;;5.15;3.50;;;2.70;99.90;;;;;;5045688;28;20048;-77
2021/03/06 09:50:28;;;;;;;4.43;2.00;;;2.70;99.90;;;;;;5032112;28;20124;-78
2021/03/06 09:52:53;;;;;;;3.53;1.80;;;2.70;99.90;;;;;;5049304;28;20092;-78
2021/03/06 09:55:19;;;;;;;2.13;1.50;;;2.80;99.90;;;;;;5047463;28;20066;-77
2021/03/06 09:57:45;;;;;;;2.33;1.38;;;2.90;99.90;;;;;;5048866;28;20037;-77
2021/03/06 10:00:24;;;;;;;1.40;0.98;;;3.00;98.50;;;;;;5080581;28;20531;-77
2021/03/06 10:02:51;;;;;;;2.35;1.38;;;3.00;96.30;;;;;;5047547;28;20043;-77
2021/03/06 10:05:22;;;;;;;3.90;1.77;;;3.00;95.20;;;;;;5047293;28;20120;-77
2021/03/06 10:07:50;;;;;;;2.72;1.63;;;2.90;95.30;;;;;;5043581;28;20029;-78
2021/03/06 10:10:16;;;;;;;4.82;1.70;;;3.00;97.00;;;;;;5046860;28;20749;-78
2021/03/06 10:12:46;;;;;;;2.40;1.73;;;3.00;97.90;;;;;;5075395;28;20037;-77
2021/03/06 10:15:15;;;;;;;2.25;1.50;;;3.10;98.50;;;;;;5055907;28;20029;-77
2021/03/06 10:17:41;;;;;;;1.90;1.25;;;3.20;97.60;;;;;;5046047;28;20032;-77
2021/03/06 10:20:07;;;;;;;2.42;1.40;;;3.30;96.90;;;;;;5049201;28;20557;-77
2021/03/06 10:22:44;;;;;;;3.58;1.65;;;3.40;84.40;;;;;;5082163;28;20037;-77
2021/03/06 10:25:11;;;;;;;3.83;1.52;;;3.30;92.50;;;;;;5048077;28;20538;-77
2021/03/06 10:27:43;;;;;;;2.28;1.73;;;3.40;98.60;;;;;;5046545;28;20025;-77
2021/03/06 10:30:23;;;;;;;2.70;1.80;;;3.50;97.70;;;;;;5049101;28;20535;-77
2021/03/06 10:32:53;;;;;;;5.78;2.22;;;3.60;95.10;;;;;;5048792;28;20025;-77
2021/03/06 10:35:38;;;;;;;2.63;1.42;;;3.60;94.40;;;;;;5048372;28;20526;-77
2021/03/06 10:38:06;;;;;;;3.00;1.73;;;3.70;93.30;;;;;;5046963;28;20079;-77
2021/03/06 10:40:59;;;;;;;2.13;1.52;;;3.70;88.10;;;;;;5047591;28;20060;-77
2021/03/06 10:43:31;;;;;;;2.92;1.50;;;3.70;86.30;;;;;;5049523;28;21082;-77
2021/03/06 10:46:10;;;;;;;2.17;1.13;;;3.70;86.20;;;;;;5047371;28;20049;-77
2021/03/06 10:48:36;;;;;;;2.92;1.40;;;3.70;76.90;;;;;;5048121;28;20415;-77
2021/03/06 10:51:02;;;;;;;2.08;1.50;;;3.60;82.20;;;;;;5047372;28;20040;-76
2021/03/06 10:53:28;;;;;;;3.55;1.60;;;3.70;90.50;;;;;;5049011;28;20032;-76
2021/03/06 10:55:54;;;;;;;2.92;1.38;;;3.70;88.70;;;;;;5047722;28;20037;-76
2021/03/06 10:58:21;;;;;;;2.97;1.45;;;3.80;88.00;;;;;;5046009;28;20044;-76
2021/03/06 11:00:48;;;;;;;1.70;1.30;;;3.90;82.70;;;;;;5049120;28;20056;-76
2021/03/06 11:03:14;;;;;;;2.20;1.67;;;3.90;84.20;;;;;;5030168;28;20025;-76
2021/03/06 11:05:42;;;;;;;2.22;1.10;;;4.00;77.70;;;;;;5035971;28;20032;-75
2021/03/06 11:08:21;;;;;;;1.25;0.82;;;3.90;73.40;;;;;;5047369;28;20040;-76
2021/03/06 11:10:51;;;;;;;1.63;0.90;;;3.90;71.60;;;;;;5048452;28;20029;-76
2021/03/06 11:13:18;;;;;;;2.42;1.15;;;3.90;74.40;;;;;;5048140;28;20094;-76
2021/03/06 11:15:53;;;;;;;2.22;0.93;;;3.90;70.50;;;;;;5063220;28;20044;-76
2021/03/06 11:18:20;;;;;;;2.27;1.03;;;3.90;67.20;;;;;;5078686;28;20511;-76
2021/03/06 11:20:48;;;;;;;1.63;0.90;;;3.90;67.90;;;;;;5048531;28;20025;-77
2021/03/06 11:23:14;;;;;;;1.38;0.93;;;4.00;67.90;;;;;;5045780;28;20037;-76
2021/03/06 11:25:40;;;;;;;3.60;1.30;;;4.00;64.90;;;;;;5047396;28;20088;-75
2021/03/06 11:28:08;;;;;;;2.38;0.80;;;4.00;67.90;;;;;;5047414;28;20060;-76
2021/03/06 11:30:46;;;;;;;1.13;0.82;;;4.00;69.30;;;;;;5047735;28;20047;-76
2021/03/06 11:33:15;;;;;;;1.85;0.90;;;4.00;66.80;;;;;;5037991;28;20029;-76
2021/03/06 11:35:41;;;;;;;0.90;0.68;;;4.00;68.80;;;;;;5037844;28;20029;-75
2021/03/06 11:38:09;;;;;;;3.25;0.63;;;4.00;58.40;;;;;;5058514;28;20041;-76
2021/03/06 11:40:37;;;;;;;1.00;0.90;;;4.00;55.20;;;;;;5041939;28;20035;-76
2021/03/06 11:43:03;;;;;;;1.00;0.80;;;4.00;58.50;;;;;;5042311;28;20036;-79
2021/03/06 11:45:29;;;;;;;1.02;0.77;;;4.00;58.60;;;;;;5031876;28;20032;-80
2021/03/06 11:47:55;;;;;;;2.25;1.15;;;4.00;57.00;;;;;;5047681;28;20092;-80
2021/03/06 11:50:25;;;;;;;2.45;0.90;;;4.00;54.60;;;;;;5031324;28;20119;-78
2021/03/06 11:52:51;;;;;;;2.70;1.45;;;4.00;57.00;;;;;;5048769;28;20078;-78
2021/03/06 11:55:16;;;;;;;1.00;0.57;;;3.90;52.50;;;;;;5046522;28;20491;-78
2021/03/06 11:57:43;;;;;;;1.65;0.63;;;3.90;58.20;;;;;;5070762;28;20033;-79
2021/03/06 12:00:18;;;;;;;0.95;0.70;;;4.00;51.50;;;;;;5048576;28;20029;-80
2021/03/06 12:02:44;;;;;;;0.65;0.65;;;4.00;52.30;;;;;;5055844;28;20041;-76
2021/03/06 12:05:12;;;;;;;0.52;0.52;;;4.10;52.00;;;;;;5074434;28;20032;-76
2021/03/06 12:07:39;;;;;;;0.52;0.40;;;4.10;50.30;;;;;;5074138;28;20033;-75
2021/03/06 12:10:07;;;;;;;0.82;0.40;;;4.20;53.20;;;;;;5045945;28;20128;-75
2021/03/06 12:12:33;;;;;;;1.55;0.45;;;4.20;48.00;;;;;;5059042;28;20430;-75
2021/03/06 12:14:58;;;;;;;0.50;0.50;;;4.40;49.00;;;;;;5042120;28;20020;-75
2021/03/06 12:17:24;;;;;;;0.35;0.30;;;4.50;49.60;;;;;;5043245;28;20029;-74
2021/03/06 12:19:50;;;;;;;0.60;0.47;;;4.50;46.70;;;;;;5046150;28;20036;-75
2021/03/06 12:22:16;;;;;;;1.85;0.60;;;4.50;49.70;;;;;;5047162;28;20766;-77
2021/03/06 12:24:41;;;;;;;2.65;0.40;;;4.50;47.70;;;;;;5045995;28;20120;-74
2021/03/06 12:27:07;;;;;;;1.73;0.70;;;4.50;47.40;;;;;;5045512;28;20045;-76
2021/03/06 12:29:33;;;;;;;0.88;0.70;;;4.60;48.20;;;;;;5044911;28;20622;-75
2021/03/06 12:31:59;;;;;;;0.77;0.55;;;4.70;47.10;;;;;;5045673;28;20363;-77
2021/03/06 12:34:25;;;;;;;1.70;0.60;;;4.60;49.30;;;;;;5074103;28;20032;-77
2021/03/06 12:36:51;;;;;;;1.35;0.70;;;4.70;47.60;;;;;;5046281;28;20408;-77
2021/03/06 12:39:17;;;;;;;1.15;0.50;;;4.70;49.00;;;;;;5044082;28;20037;-74
2021/03/06 12:41:43;;;;;;;0.73;0.52;;;4.80;48.20;;;;;;5041018;28;20036;-76
2021/03/06 12:44:09;;;;;;;1.23;0.52;;;4.80;48.10;;;;;;5046360;28;20036;-76
2021/03/06 12:46:35;;;;;;;0.95;0.63;;;4.90;48.20;;;;;;5049545;28;20044;-76
2021/03/06 12:49:02;;;;;;;1.05;0.52;;;4.90;49.80;;;;;;5040454;28;20040;-76
2021/03/06 12:51:28;;;;;;;2.28;0.63;;;5.00;48.40;;;;;;5045340;28;20484;-79
2021/03/06 12:53:53;;;;;;;0.60;0.43;;;5.00;46.70;;;;;;5040090;28;20021;-76
2021/03/06 12:56:20;;;;;;;0.98;0.50;;;5.00;45.20;;;;;;5044170;28;20725;-75
2021/03/06 12:58:46;;;;;;;0.88;0.60;;;5.00;50.50;;;;;;5046562;28;20060;-75